sensor_id;sensor_type;location;lat;lon;timestamp;pressure;altitude;pressure_sealevel;temperature;humidity
36692;BME280;22678;52.052;4.242;2023-03-25T00:02:14;100101.47;;;10.03;78.04
36692;BME280;22678;52.052;4.242;2023-03-25T00:04:39;100114.66;;;9.98;77.93
36692;BME280;22678;52.052;4.242;2023-03-25T00:07:05;100085.94;;;9.90;78.45
36692;BME280;22678;52.052;4.242;2023-03-25T00:09:31;100077.28;;;9.85;78.19
36692;BME280;22678;52.052;4.242;2023-03-25T00:11:56;100107.75;;;9.94;78.23
36692;BME280;22678;52.052;4.242;2023-03-25T00:14:22;100107.72;;;9.97;78.29
36692;BME280;22678;52.052;4.242;2023-03-25T00:16:49;100096.31;;;9.96;78.52
36692;BME280;22678;52.052;4.242;2023-03-25T00:19:17;100118.25;;;9.95;78.48
36692;BME280;22678;52.052;4.242;2023-03-25T00:21:46;100100.75;;;9.94;78.62
36692;BME280;22678;52.052;4.242;2023-03-25T00:24:14;100099.09;;;9.89;78.80
36692;BME280;22678;52.052;4.242;2023-03-25T00:26:42;100106.06;;;9.91;78.91
36692;BME280;22678;52.052;4.242;2023-03-25T00:29:08;100098.22;;;9.88;79.32
36692;BME280;22678;52.052;4.242;2023-03-25T00:31:34;100102.44;;;9.98;79.31
36692;BME280;22678;52.052;4.242;2023-03-25T00:33:59;100093.84;;;9.87;79.30
36692;BME280;22678;52.052;4.242;2023-03-25T00:36:25;100098.13;;;9.94;79.70
36692;BME280;22678;52.052;4.242;2023-03-25T00:38:50;100099.81;;;9.98;79.92
36692;BME280;22678;52.052;4.242;2023-03-25T00:41:18;100093.81;;;9.90;80.39
36692;BME280;22678;52.052;4.242;2023-03-25T00:43:48;100085.94;;;9.90;80.36
36692;BME280;22678;52.052;4.242;2023-03-25T00:46:13;100080.66;;;9.90;80.60
36692;BME280;22678;52.052;4.242;2023-03-25T00:48:40;100087.72;;;9.88;80.84
36692;BME280;22678;52.052;4.242;2023-03-25T00:51:06;100092.00;;;9.94;81.09
36692;BME280;22678;52.052;4.242;2023-03-25T00:53:35;100086.72;;;9.95;81.05
36692;BME280;22678;52.052;4.242;2023-03-25T00:56:01;100090.28;;;9.91;81.29
36692;BME280;22678;52.052;4.242;2023-03-25T00:58:27;100084.06;;;9.97;81.24
36692;BME280;22678;52.052;4.242;2023-03-25T01:00:52;100074.50;;;9.93;81.61
36692;BME280;22678;52.052;4.242;2023-03-25T01:03:26;100074.63;;;9.87;81.51
36692;BME280;22678;52.052;4.242;2023-03-25T01:05:53;100092.91;;;9.91;81.58
36692;BME280;22678;52.052;4.242;2023-03-25T01:08:21;100100.88;;;9.87;81.62
36692;BME280;22678;52.052;4.242;2023-03-25T01:10:51;100079.94;;;9.84;82.00
36692;BME280;22678;52.052;4.242;2023-03-25T01:13:17;100106.06;;;9.91;81.88
36692;BME280;22678;52.052;4.242;2023-03-25T01:15:43;100075.59;;;9.81;82.35
36692;BME280;22678;52.052;4.242;2023-03-25T01:18:08;100085.97;;;9.87;82.29
36692;BME280;22678;52.052;4.242;2023-03-25T01:20:33;100093.78;;;9.92;82.58
36692;BME280;22678;52.052;4.242;2023-03-25T01:22:59;100081.59;;;9.88;82.62
36692;BME280;22678;52.052;4.242;2023-03-25T01:25:24;100082.56;;;9.84;83.22
36692;BME280;22678;52.052;4.242;2023-03-25T01:27:50;100086.88;;;9.85;83.37
36692;BME280;22678;52.052;4.242;2023-03-25T01:30:15;100080.72;;;9.87;83.64
36692;BME280;22678;52.052;4.242;2023-03-25T01:32:40;100061.66;;;9.76;83.55
36692;BME280;22678;52.052;4.242;2023-03-25T01:35:06;100072.16;;;9.76;83.83
36692;BME280;22678;52.052;4.242;2023-03-25T01:37:31;100052.09;;;9.73;83.65
36692;BME280;22678;52.052;4.242;2023-03-25T01:39:58;100057.31;;;9.75;83.85
36692;BME280;22678;52.052;4.242;2023-03-25T01:42:23;100079.09;;;9.80;83.89
36692;BME280;22678;52.052;4.242;2023-03-25T01:47:17;100077.41;;;9.76;84.12
36692;BME280;22678;52.052;4.242;2023-03-25T01:49:43;100066.09;;;9.72;84.23
36692;BME280;22678;52.052;4.242;2023-03-25T01:52:17;100052.09;;;9.73;84.22
36692;BME280;22678;52.052;4.242;2023-03-25T01:54:46;100079.22;;;9.74;84.48
36692;BME280;22678;52.052;4.242;2023-03-25T01:57:14;100072.09;;;9.79;84.36
36692;BME280;22678;52.052;4.242;2023-03-25T01:59:43;100066.97;;;9.73;84.57
36692;BME280;22678;52.052;4.242;2023-03-25T02:02:09;100060.91;;;9.69;84.72
36692;BME280;22678;52.052;4.242;2023-03-25T02:07:10;100068.75;;;9.71;85.21
36692;BME280;22678;52.052;4.242;2023-03-25T02:09:37;100034.06;;;9.53;85.34
36692;BME280;22678;52.052;4.242;2023-03-25T02:12:02;100065.28;;;9.70;85.45
36692;BME280;22678;52.052;4.242;2023-03-25T02:14:31;100069.56;;;9.74;85.61
36692;BME280;22678;52.052;4.242;2023-03-25T02:37:05;100049.50;;;9.72;86.99
36692;BME280;22678;52.052;4.242;2023-03-25T02:45:29;100030.16;;;9.76;86.91
36692;BME280;22678;52.052;4.242;2023-03-25T02:48:00;100041.53;;;9.76;87.03
36692;BME280;22678;52.052;4.242;2023-03-25T02:50:39;100024.19;;;9.68;87.05
36692;BME280;22678;52.052;4.242;2023-03-25T02:53:09;100028.53;;;9.69;86.71
36692;BME280;22678;52.052;4.242;2023-03-25T02:55:37;100032.84;;;9.71;86.93
36692;BME280;22678;52.052;4.242;2023-03-25T02:58:07;100029.31;;;9.74;86.80
36692;BME280;22678;52.052;4.242;2023-03-25T03:00:35;100025.06;;;9.67;86.93
36692;BME280;22678;52.052;4.242;2023-03-25T03:03:04;100024.19;;;9.68;86.96
36692;BME280;22678;52.052;4.242;2023-03-25T03:13:46;100032.00;;;9.71;87.38
36692;BME280;22678;52.052;4.242;2023-03-25T03:16:22;100013.66;;;9.69;87.58
36692;BME280;22678;52.052;4.242;2023-03-25T03:19:15;100013.84;;;9.60;87.56
36692;BME280;22678;52.052;4.242;2023-03-25T03:24:23;100025.94;;;9.67;87.34
36692;BME280;22678;52.052;4.242;2023-03-25T03:26:56;100023.28;;;9.69;87.50
36692;BME280;22678;52.052;4.242;2023-03-25T03:29:33;100030.38;;;9.63;87.58
36692;BME280;22678;52.052;4.242;2023-03-25T03:32:11;100018.97;;;9.66;87.17
36692;BME280;22678;52.052;4.242;2023-03-25T03:34:57;100018.97;;;9.66;87.06
36692;BME280;22678;52.052;4.242;2023-03-25T03:37:32;100023.38;;;9.62;87.31
36692;BME280;22678;52.052;4.242;2023-03-25T03:40:02;100034.03;;;9.55;87.84
36692;BME280;22678;52.052;4.242;2023-03-25T03:42:36;100032.19;;;9.58;88.08
36692;BME280;22678;52.052;4.242;2023-03-25T03:45:07;100032.31;;;9.52;88.19
36692;BME280;22678;52.052;4.242;2023-03-25T03:47:39;100022.03;;;9.40;88.23
36692;BME280;22678;52.052;4.242;2023-03-25T03:50:08;100033.41;;;9.39;88.15
36692;BME280;22678;52.052;4.242;2023-03-25T03:52:40;100050.84;;;9.43;88.24
36692;BME280;22678;52.052;4.242;2023-03-25T03:55:21;100055.13;;;9.49;87.71
36692;BME280;22678;52.052;4.242;2023-03-25T03:57:55;100054.28;;;9.46;87.43
36692;BME280;22678;52.052;4.242;2023-03-25T04:00:28;100045.59;;;9.43;87.40
36692;BME280;22678;52.052;4.242;2023-03-25T04:03:10;100029.09;;;9.35;87.37
36692;BME280;22678;52.052;4.242;2023-03-25T04:05:40;100031.78;;;9.32;87.31
36692;BME280;22678;52.052;4.242;2023-03-25T04:08:12;100037.06;;;9.28;87.36
36692;BME280;22678;52.052;4.242;2023-03-25T04:10:57;100039.75;;;9.25;87.48
36692;BME280;22678;52.052;4.242;2023-03-25T04:13:31;100059.00;;;9.24;87.40
36692;BME280;22678;52.052;4.242;2023-03-25T04:15:58;100055.44;;;9.28;87.70
36692;BME280;22678;52.052;4.242;2023-03-25T04:18:24;100045.94;;;9.20;87.87
36692;BME280;22678;52.052;4.242;2023-03-25T04:20:52;100060.72;;;9.25;88.03
36692;BME280;22678;52.052;4.242;2023-03-25T04:23:18;100047.78;;;9.15;88.17
36692;BME280;22678;52.052;4.242;2023-03-25T04:25:44;100060.78;;;9.22;88.03
36692;BME280;22678;52.052;4.242;2023-03-25T04:28:18;100038.06;;;9.21;88.08
36692;BME280;22678;52.052;4.242;2023-03-25T04:30:43;100046.78;;;9.23;87.86
36692;BME280;22678;52.052;4.242;2023-03-25T04:33:12;100052.09;;;9.19;87.47
36692;BME280;22678;52.052;4.242;2023-03-25T04:35:39;100050.38;;;9.16;87.59
36692;BME280;22678;52.052;4.242;2023-03-25T04:38:05;100062.63;;;9.17;87.52
36692;BME280;22678;52.052;4.242;2023-03-25T04:40:30;100067.88;;;9.14;86.98
36692;BME280;22678;52.052;4.242;2023-03-25T04:42:57;100066.13;;;9.16;86.42
36692;BME280;22678;52.052;4.242;2023-03-25T04:45:22;100060.91;;;9.15;86.32
36692;BME280;22678;52.052;4.242;2023-03-25T04:47:50;100044.38;;;9.08;86.11
36692;BME280;22678;52.052;4.242;2023-03-25T04:50:26;100063.56;;;9.13;85.99
36692;BME280;22678;52.052;4.242;2023-03-25T04:52:53;100079.28;;;9.15;85.73
36692;BME280;22678;52.052;4.242;2023-03-25T04:55:21;100044.41;;;9.06;85.28
36692;BME280;22678;52.052;4.242;2023-03-25T04:57:49;100066.22;;;9.10;85.08
36692;BME280;22678;52.052;4.242;2023-03-25T05:00:17;100065.31;;;9.11;85.17
36692;BME280;22678;52.052;4.242;2023-03-25T05:02:44;100064.47;;;9.10;85.41
36692;BME280;22678;52.052;4.242;2023-03-25T05:05:14;100081.00;;;9.14;85.50
36692;BME280;22678;52.052;4.242;2023-03-25T05:07:45;100061.84;;;9.10;85.85
36692;BME280;22678;52.052;4.242;2023-03-25T05:10:11;100078.38;;;9.14;86.06
36692;BME280;22678;52.052;4.242;2023-03-25T05:12:36;100070.50;;;9.14;86.41
36692;BME280;22678;52.052;4.242;2023-03-25T05:15:02;100071.41;;;9.13;86.61
36692;BME280;22678;52.052;4.242;2023-03-25T05:17:27;100064.34;;;9.18;86.69
36692;BME280;22678;52.052;4.242;2023-03-25T05:19:53;100060.00;;;9.17;86.85
36692;BME280;22678;52.052;4.242;2023-03-25T05:22:21;100074.00;;;9.16;87.10
36692;BME280;22678;52.052;4.242;2023-03-25T05:24:46;100068.78;;;9.15;87.22
36692;BME280;22678;52.052;4.242;2023-03-25T05:27:11;100077.44;;;9.20;87.35
36692;BME280;22678;52.052;4.242;2023-03-25T05:29:37;100081.91;;;9.13;87.30
36692;BME280;22678;52.052;4.242;2023-03-25T05:32:03;100071.31;;;9.19;87.52
36692;BME280;22678;52.052;4.242;2023-03-25T05:34:28;100077.53;;;9.14;87.79
36692;BME280;22678;52.052;4.242;2023-03-25T05:36:55;100065.28;;;9.12;87.57
36692;BME280;22678;52.052;4.242;2023-03-25T05:39:20;100085.41;;;9.12;87.82
36692;BME280;22678;52.052;4.242;2023-03-25T05:41:45;100082.78;;;9.14;88.03
36692;BME280;22678;52.052;4.242;2023-03-25T05:44:11;100073.22;;;9.08;88.23
36692;BME280;22678;52.052;4.242;2023-03-25T05:46:39;100070.69;;;9.03;87.89
36692;BME280;22678;52.052;4.242;2023-03-25T05:49:04;100074.06;;;9.11;88.06
36692;BME280;22678;52.052;4.242;2023-03-25T05:51:32;100085.47;;;9.09;88.38
36692;BME280;22678;52.052;4.242;2023-03-25T05:54:01;100084.66;;;9.02;88.13
36692;BME280;22678;52.052;4.242;2023-03-25T05:56:27;100082.94;;;9.03;88.40
36692;BME280;22678;52.052;4.242;2023-03-25T05:58:52;100090.75;;;9.06;88.73
36692;BME280;22678;52.052;4.242;2023-03-25T06:01:19;100117.88;;;9.05;88.14
36692;BME280;22678;52.052;4.242;2023-03-25T06:03:46;100107.31;;;9.09;88.22
36692;BME280;22678;52.052;4.242;2023-03-25T06:06:12;100096.06;;;9.03;88.22
36692;BME280;22678;52.052;4.242;2023-03-25T06:08:47;100109.97;;;9.06;88.12
36692;BME280;22678;52.052;4.242;2023-03-25T06:11:15;100107.34;;;9.06;87.98
36692;BME280;22678;52.052;4.242;2023-03-25T06:13:41;100113.47;;;9.08;88.00
36692;BME280;22678;52.052;4.242;2023-03-25T06:16:14;100103.84;;;9.07;87.76
36692;BME280;22678;52.052;4.242;2023-03-25T06:18:43;100112.56;;;9.08;87.42
36692;BME280;22678;52.052;4.242;2023-03-25T06:21:08;100094.31;;;9.02;86.85
36692;BME280;22678;52.052;4.242;2023-03-25T06:23:33;100114.34;;;9.07;86.75
36692;BME280;22678;52.052;4.242;2023-03-25T06:26:00;100131.72;;;9.15;86.32
36692;BME280;22678;52.052;4.242;2023-03-25T06:28:26;100114.25;;;9.14;86.09
36692;BME280;22678;52.052;4.242;2023-03-25T06:30:51;100118.72;;;9.08;86.05
36692;BME280;22678;52.052;4.242;2023-03-25T06:33:16;100094.16;;;9.11;85.46
36692;BME280;22678;52.052;4.242;2023-03-25T06:35:46;100132.44;;;9.24;84.97
36692;BME280;22678;52.052;4.242;2023-03-25T06:38:17;100114.06;;;9.26;84.86
36692;BME280;22678;52.052;4.242;2023-03-25T06:40:43;100102.91;;;9.13;84.50
36692;BME280;22678;52.052;4.242;2023-03-25T06:43:08;100109.78;;;9.20;84.46
36692;BME280;22678;52.052;4.242;2023-03-25T06:45:34;100111.50;;;9.21;84.30
36692;BME280;22678;52.052;4.242;2023-03-25T06:47:59;100131.56;;;9.27;84.68
36692;BME280;22678;52.052;4.242;2023-03-25T06:50:25;100141.03;;;9.36;83.66
36692;BME280;22678;52.052;4.242;2023-03-25T06:52:51;100135.75;;;9.39;83.45
36692;BME280;22678;52.052;4.242;2023-03-25T06:55:16;100120.94;;;9.35;83.32
36692;BME280;22678;52.052;4.242;2023-03-25T06:57:42;100131.41;;;9.36;83.21
36692;BME280;22678;52.052;4.242;2023-03-25T07:00:08;100137.41;;;9.46;82.69
36692;BME280;22678;52.052;4.242;2023-03-25T07:02:36;100137.34;;;9.49;82.37
36692;BME280;22678;52.052;4.242;2023-03-25T07:05:02;100132.97;;;9.51;81.57
36692;BME280;22678;52.052;4.242;2023-03-25T07:07:27;100112.97;;;9.42;81.39
36692;BME280;22678;52.052;4.242;2023-03-25T07:09:52;100143.34;;;9.59;81.48
36692;BME280;22678;52.052;4.242;2023-03-25T07:12:20;100142.44;;;9.61;81.20
36692;BME280;22678;52.052;4.242;2023-03-25T07:14:53;100136.31;;;9.59;80.92
36692;BME280;22678;52.052;4.242;2023-03-25T07:17:18;100139.78;;;9.63;80.65
36692;BME280;22678;52.052;4.242;2023-03-25T07:19:44;100139.81;;;9.60;79.84
36692;BME280;22678;52.052;4.242;2023-03-25T07:22:09;100139.00;;;9.56;79.49
36692;BME280;22678;52.052;4.242;2023-03-25T07:24:34;100142.28;;;9.71;79.46
36692;BME280;22678;52.052;4.242;2023-03-25T07:27:00;100151.81;;;9.76;78.88
36692;BME280;22678;52.052;4.242;2023-03-25T07:29:25;100130.97;;;9.65;78.51
36692;BME280;22678;52.052;4.242;2023-03-25T07:31:51;100129.97;;;9.73;78.29
36692;BME280;22678;52.052;4.242;2023-03-25T07:34:16;100155.31;;;9.77;78.14
36692;BME280;22678;52.052;4.242;2023-03-25T07:36:41;100147.44;;;9.77;78.01
36692;BME280;22678;52.052;4.242;2023-03-25T07:39:07;100149.13;;;9.81;77.78
36692;BME280;22678;52.052;4.242;2023-03-25T07:41:32;100132.63;;;9.71;77.86
36692;BME280;22678;52.052;4.242;2023-03-25T07:43:58;100150.91;;;9.77;78.04
36692;BME280;22678;52.052;4.242;2023-03-25T07:46:23;100152.56;;;9.83;77.97
36692;BME280;22678;52.052;4.242;2023-03-25T07:48:48;100163.06;;;9.83;77.50
36692;BME280;22678;52.052;4.242;2023-03-25T07:51:14;100162.13;;;9.89;77.54
36692;BME280;22678;52.052;4.242;2023-03-25T07:53:39;100159.56;;;9.84;77.46
36692;BME280;22678;52.052;4.242;2023-03-25T07:56:09;100178.72;;;9.92;77.24
36692;BME280;22678;52.052;4.242;2023-03-25T07:58:35;100183.97;;;9.92;77.25
36692;BME280;22678;52.052;4.242;2023-03-25T08:01:00;100164.66;;;9.93;77.16
36692;BME280;22678;52.052;4.242;2023-03-25T08:03:26;100162.03;;;9.93;76.91
36692;BME280;22678;52.052;4.242;2023-03-25T08:05:52;100181.13;;;10.05;76.53
36692;BME280;22678;52.052;4.242;2023-03-25T08:08:18;100161.91;;;10.03;76.78
36692;BME280;22678;52.052;4.242;2023-03-25T08:10:44;100181.88;;;10.13;76.33
36692;BME280;22678;52.052;4.242;2023-03-25T08:13:10;100188.69;;;10.23;76.10
36692;BME280;22678;52.052;4.242;2023-03-25T08:15:36;100195.56;;;10.30;76.27
36692;BME280;22678;52.052;4.242;2023-03-25T08:18:01;100164.13;;;10.24;76.29
36692;BME280;22678;52.052;4.242;2023-03-25T08:20:29;100187.66;;;10.30;76.06
36692;BME280;22678;52.052;4.242;2023-03-25T08:22:54;100187.66;;;10.30;76.08
36692;BME280;22678;52.052;4.242;2023-03-25T08:25:21;100197.22;;;10.38;76.52
36692;BME280;22678;52.052;4.242;2023-03-25T08:27:46;100219.06;;;10.43;76.06
36692;BME280;22678;52.052;4.242;2023-03-25T08:30:12;100190.13;;;10.43;75.71
36692;BME280;22678;52.052;4.242;2023-03-25T08:32:38;100197.06;;;10.47;75.20
36692;BME280;22678;52.052;4.242;2023-03-25T08:35:04;100189.09;;;10.51;75.14
36692;BME280;22678;52.052;4.242;2023-03-25T08:37:31;100181.13;;;10.56;74.78
36692;BME280;22678;52.052;4.242;2023-03-25T08:40:00;100186.44;;;10.53;74.40
36692;BME280;22678;52.052;4.242;2023-03-25T08:42:25;100193.38;;;10.57;74.48
36692;BME280;22678;52.052;4.242;2023-03-25T08:44:51;100196.91;;;10.56;74.25
36692;BME280;22678;52.052;4.242;2023-03-25T08:47:16;100193.44;;;10.54;74.20
36692;BME280;22678;52.052;4.242;2023-03-25T08:49:41;100198.63;;;10.57;74.84
36692;BME280;22678;52.052;4.242;2023-03-25T08:52:07;100220.28;;;10.70;74.87
36692;BME280;22678;52.052;4.242;2023-03-25T08:54:32;100212.38;;;10.72;74.99
36692;BME280;22678;52.052;4.242;2023-03-25T08:56:58;100224.44;;;10.82;74.54
36692;BME280;22678;52.052;4.242;2023-03-25T08:59:23;100213.16;;;10.77;74.26
36692;BME280;22678;52.052;4.242;2023-03-25T09:01:48;100224.44;;;10.82;74.70
36692;BME280;22678;52.052;4.242;2023-03-25T09:04:14;100227.91;;;10.85;74.63
36692;BME280;22678;52.052;4.242;2023-03-25T09:06:40;100230.47;;;10.89;74.68
36692;BME280;22678;52.052;4.242;2023-03-25T09:09:06;100233.06;;;10.90;74.05
36692;BME280;22678;52.052;4.242;2023-03-25T09:11:32;100242.69;;;10.93;74.03
36692;BME280;22678;52.052;4.242;2023-03-25T09:13:58;100238.28;;;10.93;73.67
36692;BME280;22678;52.052;4.242;2023-03-25T09:16:23;100233.94;;;10.91;73.92
36692;BME280;22678;52.052;4.242;2023-03-25T09:18:49;100244.31;;;11.00;73.77
36692;BME280;22678;52.052;4.242;2023-03-25T09:21:14;100234.56;;;11.03;73.52
36692;BME280;22678;52.052;4.242;2023-03-25T09:23:39;100237.09;;;11.08;73.40
36692;BME280;22678;52.052;4.242;2023-03-25T09:26:05;100223.94;;;11.08;73.91
36692;BME280;22678;52.052;4.242;2023-03-25T09:28:31;100225.78;;;11.04;73.46
36692;BME280;22678;52.052;4.242;2023-03-25T09:30:56;100227.34;;;11.15;72.56
36692;BME280;22678;52.052;4.242;2023-03-25T09:33:22;100203.75;;;11.10;72.41
36692;BME280;22678;52.052;4.242;2023-03-25T09:35:48;100226.41;;;11.16;72.17
36692;BME280;22678;52.052;4.242;2023-03-25T09:38:14;100220.94;;;11.27;72.19
36692;BME280;22678;52.052;4.242;2023-03-25T09:40:41;100217.25;;;11.35;72.30
36692;BME280;22678;52.052;4.242;2023-03-25T09:46:02;100233.19;;;11.68;70.47
36692;BME280;22678;52.052;4.242;2023-03-25T09:48:39;100245.34;;;11.75;70.51
36692;BME280;22678;52.052;4.242;2023-03-25T09:53:45;100257.78;;;11.67;69.31
36692;BME280;22678;52.052;4.242;2023-03-25T09:56:18;100250.88;;;11.63;69.84
36692;BME280;22678;52.052;4.242;2023-03-25T09:58:49;100259.75;;;11.59;69.55
36692;BME280;22678;52.052;4.242;2023-03-25T10:01:51;100279.00;;;11.61;70.19
36692;BME280;22678;52.052;4.242;2023-03-25T10:04:43;100258.81;;;11.62;70.09
36692;BME280;22678;52.052;4.242;2023-03-25T10:07:34;100248.84;;;11.74;70.15
36692;BME280;22678;52.052;4.242;2023-03-25T10:13:13;100268.56;;;11.99;69.09
36692;BME280;22678;52.052;4.242;2023-03-25T10:29:12;100244.06;;;12.31;67.26
36692;BME280;22678;52.052;4.242;2023-03-25T10:31:45;100269.34;;;12.40;67.46
36692;BME280;22678;52.052;4.242;2023-03-25T10:34:16;100263.25;;;12.36;67.08
36692;BME280;22678;52.052;4.242;2023-03-25T10:36:46;100267.59;;;12.39;67.05
36692;BME280;22678;52.052;4.242;2023-03-25T10:39:18;100282.97;;;12.57;66.86
36692;BME280;22678;52.052;4.242;2023-03-25T10:41:49;100288.78;;;12.70;66.21
36692;BME280;22678;52.052;4.242;2023-03-25T10:44:16;100273.81;;;12.71;66.11
36692;BME280;22678;52.052;4.242;2023-03-25T10:49:19;100283.09;;;12.86;65.51
36692;BME280;22678;52.052;4.242;2023-03-25T10:51:47;100287.72;;;12.77;65.10
36692;BME280;22678;52.052;4.242;2023-03-25T10:54:14;100291.38;;;12.72;64.71
36692;BME280;22678;52.052;4.242;2023-03-25T10:56:44;100298.19;;;12.80;65.37
36692;BME280;22678;52.052;4.242;2023-03-25T10:59:28;100297.72;;;12.99;65.48
36692;BME280;22678;52.052;4.242;2023-03-25T11:01:56;100304.91;;;13.25;64.43
36692;BME280;22678;52.052;4.242;2023-03-25T11:04:37;100289.88;;;13.27;63.99
36692;BME280;22678;52.052;4.242;2023-03-25T11:07:15;100298.78;;;13.23;63.81
36692;BME280;22678;52.052;4.242;2023-03-25T11:09:43;100286.72;;;13.14;63.61
36692;BME280;22678;52.052;4.242;2023-03-25T11:12:08;100278.72;;;13.18;63.49
36692;BME280;22678;52.052;4.242;2023-03-25T11:14:36;100300.44;;;13.27;63.70
36692;BME280;22678;52.052;4.242;2023-03-25T11:17:07;100311.69;;;13.36;63.88
36692;BME280;22678;52.052;4.242;2023-03-25T11:19:36;100304.28;;;13.48;63.60
36692;BME280;22678;52.052;4.242;2023-03-25T11:22:26;100303.75;;;13.67;63.17
36692;BME280;22678;52.052;4.242;2023-03-25T11:24:58;100306.94;;;13.78;62.36
36692;BME280;22678;52.052;4.242;2023-03-25T11:27:26;100317.31;;;13.84;61.92
36692;BME280;22678;52.052;4.242;2023-03-25T11:29:59;100331.25;;;13.90;61.73
36692;BME280;22678;52.052;4.242;2023-03-25T11:32:37;100305.94;;;13.82;61.68
36692;BME280;22678;52.052;4.242;2023-03-25T11:35:15;100329.13;;;13.73;62.15
36692;BME280;22678;52.052;4.242;2023-03-25T11:37:53;100313.88;;;13.82;62.37
36692;BME280;22678;52.052;4.242;2023-03-25T11:40:19;100307.50;;;13.88;62.45
36692;BME280;22678;52.052;4.242;2023-03-25T11:42:50;100323.97;;;13.98;61.92
36692;BME280;22678;52.052;4.242;2023-03-25T11:45:25;100323.66;;;14.07;61.40
36692;BME280;22678;52.052;4.242;2023-03-25T11:47:52;100315.38;;;13.90;61.48
36692;BME280;22678;52.052;4.242;2023-03-25T11:50:24;100317.41;;;13.81;62.04
36692;BME280;22678;52.052;4.242;2023-03-25T11:52:59;100322.81;;;13.78;62.45
36692;BME280;22678;52.052;4.242;2023-03-25T11:55:31;100340.38;;;13.79;62.36
36692;BME280;22678;52.052;4.242;2023-03-25T11:58:00;100314.31;;;13.67;62.02
36692;BME280;22678;52.052;4.242;2023-03-25T12:00:36;100323.84;;;13.73;63.02
36692;BME280;22678;52.052;4.242;2023-03-25T12:03:04;100324.34;;;13.86;62.12
36692;BME280;22678;52.052;4.242;2023-03-25T12:05:31;100322.59;;;13.84;62.21
36692;BME280;22678;52.052;4.242;2023-03-25T12:08:04;100319.81;;;13.89;61.96
36692;BME280;22678;52.052;4.242;2023-03-25T12:11:04;100319.41;;;14.03;61.64
36692;BME280;22678;52.052;4.242;2023-03-25T12:13:46;100343.72;;;14.14;61.41
36692;BME280;22678;52.052;4.242;2023-03-25T12:25:07;100338.13;;;14.25;60.72
36692;BME280;22678;52.052;4.242;2023-03-25T12:38:30;100357.25;;;14.05;61.14
36692;BME280;22678;52.052;4.242;2023-03-25T12:41:12;100351.28;;;14.27;61.63
36692;BME280;22678;52.052;4.242;2023-03-25T12:46:51;100371.84;;;14.45;60.54
36692;BME280;22678;52.052;4.242;2023-03-25T12:54:55;100373.50;;;14.21;61.35
36692;BME280;22678;52.052;4.242;2023-03-25T13:08:59;100379.75;;;13.24;65.91
36692;BME280;22678;52.052;4.242;2023-03-25T13:11:29;100396.72;;;13.14;67.91
36692;BME280;22678;52.052;4.242;2023-03-25T13:14:00;100393.69;;;12.95;69.41
36692;BME280;22678;52.052;4.242;2023-03-25T13:16:30;100426.66;;;12.78;70.45
36692;BME280;22678;52.052;4.242;2023-03-25T13:19:05;100406.13;;;12.54;72.34
36692;BME280;22678;52.052;4.242;2023-03-25T13:21:36;100389.75;;;12.39;73.23
36692;BME280;22678;52.052;4.242;2023-03-25T13:24:10;100383.09;;;12.23;74.40
36692;BME280;22678;52.052;4.242;2023-03-25T13:26:38;100381.34;;;12.22;76.20
36692;BME280;22678;52.052;4.242;2023-03-25T13:29:20;100383.84;;;12.30;78.11
36692;BME280;22678;52.052;4.242;2023-03-25T13:31:48;100369.38;;;12.46;78.80
36692;BME280;22678;52.052;4.242;2023-03-25T13:37:10;100373.19;;;12.70;76.30
36692;BME280;22678;52.052;4.242;2023-03-25T13:42:19;100384.16;;;12.89;74.33
36692;BME280;22678;52.052;4.242;2023-03-25T13:44:50;100370.28;;;12.83;73.74
36692;BME280;22678;52.052;4.242;2023-03-25T13:47:34;100379.75;;;12.90;72.24
36692;BME280;22678;52.052;4.242;2023-03-25T13:50:07;100358.53;;;12.94;72.07
36692;BME280;22678;52.052;4.242;2023-03-25T13:52:40;100368.81;;;13.05;71.28
36692;BME280;22678;52.052;4.242;2023-03-25T13:55:17;100376.50;;;13.13;70.50
36692;BME280;22678;52.052;4.242;2023-03-25T14:09:42;100409.16;;;13.76;67.37
36692;BME280;22678;52.052;4.242;2023-03-25T14:12:29;100395.84;;;13.81;66.99
36692;BME280;22678;52.052;4.242;2023-03-25T14:15:06;100418.47;;;13.90;66.19
36692;BME280;22678;52.052;4.242;2023-03-25T14:17:36;100405.53;;;13.80;65.80
36692;BME280;22678;52.052;4.242;2023-03-25T14:20:03;100418.56;;;13.87;65.03
36692;BME280;22678;52.052;4.242;2023-03-25T14:22:38;100416.91;;;13.84;65.07
36692;BME280;22678;52.052;4.242;2023-03-25T14:25:13;100421.47;;;13.77;64.47
36692;BME280;22678;52.052;4.242;2023-03-25T14:27:47;100420.09;;;13.64;64.48
36692;BME280;22678;52.052;4.242;2023-03-25T14:30:26;100446.59;;;13.61;65.05
36692;BME280;22678;52.052;4.242;2023-03-25T14:32:54;100432.50;;;13.62;65.27
36692;BME280;22678;52.052;4.242;2023-03-25T14:45:53;100465.66;;;13.03;67.19
36692;BME280;22678;52.052;4.242;2023-03-25T14:48:35;100458.16;;;12.85;67.77
36692;BME280;22678;52.052;4.242;2023-03-25T14:53:34;100460.47;;;12.61;69.35
36692;BME280;22678;52.052;4.242;2023-03-25T14:56:00;100451.84;;;12.53;69.56
36692;BME280;22678;52.052;4.242;2023-03-25T14:58:27;100450.94;;;12.55;70.44
36692;BME280;22678;52.052;4.242;2023-03-25T15:01:13;100452.63;;;12.58;71.04
36692;BME280;22678;52.052;4.242;2023-03-25T15:03:42;100455.91;;;12.69;71.39
36692;BME280;22678;52.052;4.242;2023-03-25T15:06:14;100466.16;;;12.82;71.28
36692;BME280;22678;52.052;4.242;2023-03-25T15:08:49;100461.97;;;12.73;70.60
36692;BME280;22678;52.052;4.242;2023-03-25T15:11:26;100469.97;;;12.68;70.51
36692;BME280;22678;52.052;4.242;2023-03-25T15:13:59;100476.34;;;12.59;70.34
36692;BME280;22678;52.052;4.242;2023-03-25T15:21:19;100475.16;;;12.34;71.31
36692;BME280;22678;52.052;4.242;2023-03-25T15:23:55;100477.84;;;12.29;70.50
36692;BME280;22678;52.052;4.242;2023-03-25T15:26:35;100489.97;;;12.38;70.74
36692;BME280;22678;52.052;4.242;2023-03-25T15:37:50;100489.22;;;12.33;71.98